sensor_id;sensor_type;location;lat;lon;timestamp;P1;durP1;ratioP1;P2;durP2;ratioP2
37303;SDS011;23188;51.188;16.374;2023-04-06T00:02:02;26.80;;;17.60;;
37303;SDS011;23188;51.188;16.374;2023-04-06T00:06:06;37.40;;;22.40;;
37303;SDS011;23188;51.188;16.374;2023-04-06T00:10:09;38.80;;;22.50;;
37303;SDS011;23188;51.188;16.374;2023-04-06T00:14:13;34.60;;;21.30;;
37303;SDS011;23188;51.188;16.374;2023-04-06T00:18:16;34.20;;;22.40;;
37303;SDS011;23188;51.188;16.374;2023-04-06T00:22:19;48.00;;;29.80;;
37303;SDS011;23188;51.188;16.374;2023-04-06T00:26:23;35.10;;;24.20;;
37303;SDS011;23188;51.188;16.374;2023-04-06T00:30:26;31.60;;;25.20;;
37303;SDS011;23188;51.188;16.374;2023-04-06T00:34:30;52.60;;;26.50;;
37303;SDS011;23188;51.188;16.374;2023-04-06T00:38:33;52.70;;;26.00;;
37303;SDS011;23188;51.188;16.374;2023-04-06T00:42:36;36.30;;;21.00;;
37303;SDS011;23188;51.188;16.374;2023-04-06T00:46:41;36.50;;;23.90;;
37303;SDS011;23188;51.188;16.374;2023-04-06T00:50:44;39.30;;;26.90;;
37303;SDS011;23188;51.188;16.374;2023-04-06T00:54:48;34.80;;;23.10;;
37303;SDS011;23188;51.188;16.374;2023-04-06T00:58:52;45.80;;;27.20;;
37303;SDS011;23188;51.188;16.374;2023-04-06T01:02:56;38.60;;;23.50;;
37303;SDS011;23188;51.188;16.374;2023-04-06T01:07:02;32.60;;;21.30;;
37303;SDS011;23188;51.188;16.374;2023-04-06T01:11:06;30.40;;;19.90;;
37303;SDS011;23188;51.188;16.374;2023-04-06T01:15:10;33.30;;;17.90;;
37303;SDS011;23188;51.188;16.374;2023-04-06T01:19:14;30.50;;;21.40;;
37303;SDS011;23188;51.188;16.374;2023-04-06T01:23:17;34.70;;;24.10;;
37303;SDS011;23188;51.188;16.374;2023-04-06T01:27:20;40.10;;;19.60;;
37303;SDS011;23188;51.188;16.374;2023-04-06T01:31:24;38.70;;;22.00;;
37303;SDS011;23188;51.188;16.374;2023-04-06T01:35:27;45.90;;;31.10;;
37303;SDS011;23188;51.188;16.374;2023-04-06T01:39:31;34.30;;;18.60;;
37303;SDS011;23188;51.188;16.374;2023-04-06T01:43:34;37.10;;;25.00;;
37303;SDS011;23188;51.188;16.374;2023-04-06T01:47:38;43.40;;;25.00;;
37303;SDS011;23188;51.188;16.374;2023-04-06T01:51:46;33.80;;;23.90;;
37303;SDS011;23188;51.188;16.374;2023-04-06T01:55:50;37.10;;;20.90;;
37303;SDS011;23188;51.188;16.374;2023-04-06T01:59:53;41.80;;;23.20;;
37303;SDS011;23188;51.188;16.374;2023-04-06T02:03:57;37.70;;;22.60;;
37303;SDS011;23188;51.188;16.374;2023-04-06T02:08:00;32.50;;;21.70;;
37303;SDS011;23188;51.188;16.374;2023-04-06T02:12:03;32.80;;;22.00;;
37303;SDS011;23188;51.188;16.374;2023-04-06T02:16:15;40.60;;;23.70;;
37303;SDS011;23188;51.188;16.374;2023-04-06T02:20:19;40.30;;;19.60;;
37303;SDS011;23188;51.188;16.374;2023-04-06T02:24:22;52.80;;;25.50;;
37303;SDS011;23188;51.188;16.374;2023-04-06T02:28:25;37.40;;;25.20;;
37303;SDS011;23188;51.188;16.374;2023-04-06T02:32:29;45.40;;;26.20;;
37303;SDS011;23188;51.188;16.374;2023-04-06T02:36:32;37.10;;;23.90;;
37303;SDS011;23188;51.188;16.374;2023-04-06T02:40:35;39.50;;;23.00;;
37303;SDS011;23188;51.188;16.374;2023-04-06T02:44:39;36.80;;;23.50;;
37303;SDS011;23188;51.188;16.374;2023-04-06T02:48:42;51.70;;;23.90;;
37303;SDS011;23188;51.188;16.374;2023-04-06T02:52:45;45.30;;;25.30;;
37303;SDS011;23188;51.188;16.374;2023-04-06T02:56:48;47.20;;;24.90;;
37303;SDS011;23188;51.188;16.374;2023-04-06T03:00:51;35.70;;;23.80;;
37303;SDS011;23188;51.188;16.374;2023-04-06T03:04:55;44.90;;;27.30;;
37303;SDS011;23188;51.188;16.374;2023-04-06T03:08:58;46.00;;;23.60;;
37303;SDS011;23188;51.188;16.374;2023-04-06T03:13:01;31.50;;;23.60;;
37303;SDS011;23188;51.188;16.374;2023-04-06T03:17:05;33.50;;;23.70;;
37303;SDS011;23188;51.188;16.374;2023-04-06T03:21:08;42.00;;;26.10;;
37303;SDS011;23188;51.188;16.374;2023-04-06T03:25:11;38.50;;;24.50;;
37303;SDS011;23188;51.188;16.374;2023-04-06T03:29:15;37.70;;;26.40;;
37303;SDS011;23188;51.188;16.374;2023-04-06T03:33:19;53.00;;;27.50;;
37303;SDS011;23188;51.188;16.374;2023-04-06T03:37:22;37.70;;;28.70;;
37303;SDS011;23188;51.188;16.374;2023-04-06T03:41:25;39.60;;;22.40;;
37303;SDS011;23188;51.188;16.374;2023-04-06T03:45:29;36.90;;;22.20;;
37303;SDS011;23188;51.188;16.374;2023-04-06T03:49:32;36.90;;;25.20;;
37303;SDS011;23188;51.188;16.374;2023-04-06T03:53:36;33.20;;;24.50;;
37303;SDS011;23188;51.188;16.374;2023-04-06T03:57:39;47.80;;;24.80;;
37303;SDS011;23188;51.188;16.374;2023-04-06T04:01:43;37.80;;;26.40;;
37303;SDS011;23188;51.188;16.374;2023-04-06T04:05:46;36.70;;;22.50;;
37303;SDS011;23188;51.188;16.374;2023-04-06T04:09:50;48.40;;;25.80;;
37303;SDS011;23188;51.188;16.374;2023-04-06T04:13:53;29.40;;;24.00;;
37303;SDS011;23188;51.188;16.374;2023-04-06T04:17:56;41.30;;;23.80;;
37303;SDS011;23188;51.188;16.374;2023-04-06T04:22:01;39.80;;;24.00;;
37303;SDS011;23188;51.188;16.374;2023-04-06T04:26:08;48.60;;;27.30;;
37303;SDS011;23188;51.188;16.374;2023-04-06T04:30:12;44.00;;;22.50;;
37303;SDS011;23188;51.188;16.374;2023-04-06T04:34:16;34.40;;;21.50;;
37303;SDS011;23188;51.188;16.374;2023-04-06T04:38:19;41.70;;;26.00;;
37303;SDS011;23188;51.188;16.374;2023-04-06T04:42:24;40.90;;;23.50;;
37303;SDS011;23188;51.188;16.374;2023-04-06T04:46:27;34.60;;;22.20;;
37303;SDS011;23188;51.188;16.374;2023-04-06T04:50:31;39.10;;;24.20;;
37303;SDS011;23188;51.188;16.374;2023-04-06T04:54:34;38.50;;;23.90;;
37303;SDS011;23188;51.188;16.374;2023-04-06T04:58:38;39.90;;;24.00;;
37303;SDS011;23188;51.188;16.374;2023-04-06T05:02:41;39.20;;;23.90;;
37303;SDS011;23188;51.188;16.374;2023-04-06T05:06:44;40.90;;;27.20;;
37303;SDS011;23188;51.188;16.374;2023-04-06T05:10:49;40.30;;;26.50;;
37303;SDS011;23188;51.188;16.374;2023-04-06T05:14:53;33.60;;;25.80;;
37303;SDS011;23188;51.188;16.374;2023-04-06T05:18:56;33.20;;;24.20;;
37303;SDS011;23188;51.188;16.374;2023-04-06T05:23:00;31.90;;;21.50;;
37303;SDS011;23188;51.188;16.374;2023-04-06T05:27:04;30.10;;;20.30;;
37303;SDS011;23188;51.188;16.374;2023-04-06T05:31:27;25.20;;;20.50;;
37303;SDS011;23188;51.188;16.374;2023-04-06T05:35:30;31.50;;;24.30;;
37303;SDS011;23188;51.188;16.374;2023-04-06T05:39:33;35.00;;;24.80;;
37303;SDS011;23188;51.188;16.374;2023-04-06T05:43:37;38.00;;;24.40;;
37303;SDS011;23188;51.188;16.374;2023-04-06T05:47:40;45.30;;;27.20;;
37303;SDS011;23188;51.188;16.374;2023-04-06T05:51:43;31.60;;;23.20;;
37303;SDS011;23188;51.188;16.374;2023-04-06T05:55:46;33.10;;;22.70;;
37303;SDS011;23188;51.188;16.374;2023-04-06T05:59:50;34.60;;;21.30;;
37303;SDS011;23188;51.188;16.374;2023-04-06T06:03:57;37.90;;;22.60;;
37303;SDS011;23188;51.188;16.374;2023-04-06T06:08:03;36.80;;;23.00;;
37303;SDS011;23188;51.188;16.374;2023-04-06T06:12:07;26.80;;;20.90;;
37303;SDS011;23188;51.188;16.374;2023-04-06T06:16:10;34.00;;;21.50;;
37303;SDS011;23188;51.188;16.374;2023-04-06T06:20:13;31.40;;;22.10;;
37303;SDS011;23188;51.188;16.374;2023-04-06T06:24:18;31.70;;;23.40;;
37303;SDS011;23188;51.188;16.374;2023-04-06T06:28:21;31.40;;;22.20;;
37303;SDS011;23188;51.188;16.374;2023-04-06T06:32:24;32.40;;;19.30;;
37303;SDS011;23188;51.188;16.374;2023-04-06T06:36:27;26.70;;;20.40;;
37303;SDS011;23188;51.188;16.374;2023-04-06T06:40:33;34.40;;;24.90;;
37303;SDS011;23188;51.188;16.374;2023-04-06T06:44:38;54.70;;;33.10;;
37303;SDS011;23188;51.188;16.374;2023-04-06T06:48:43;49.90;;;27.70;;
37303;SDS011;23188;51.188;16.374;2023-04-06T06:52:47;50.90;;;30.60;;
37303;SDS011;23188;51.188;16.374;2023-04-06T06:56:50;52.80;;;31.40;;
37303;SDS011;23188;51.188;16.374;2023-04-06T07:00:57;46.90;;;29.00;;
37303;SDS011;23188;51.188;16.374;2023-04-06T07:05:02;59.80;;;35.60;;
37303;SDS011;23188;51.188;16.374;2023-04-06T07:09:18;43.20;;;33.30;;
37303;SDS011;23188;51.188;16.374;2023-04-06T07:13:21;53.70;;;37.20;;
37303;SDS011;23188;51.188;16.374;2023-04-06T07:17:25;51.70;;;37.10;;
37303;SDS011;23188;51.188;16.374;2023-04-06T07:21:29;56.80;;;39.20;;
37303;SDS011;23188;51.188;16.374;2023-04-06T07:25:32;48.80;;;36.00;;
37303;SDS011;23188;51.188;16.374;2023-04-06T07:29:36;54.70;;;41.20;;
37303;SDS011;23188;51.188;16.374;2023-04-06T07:33:39;62.80;;;40.40;;
37303;SDS011;23188;51.188;16.374;2023-04-06T07:37:43;63.80;;;41.20;;
37303;SDS011;23188;51.188;16.374;2023-04-06T07:41:46;51.30;;;36.60;;
37303;SDS011;23188;51.188;16.374;2023-04-06T07:45:50;53.30;;;38.00;;
37303;SDS011;23188;51.188;16.374;2023-04-06T07:49:54;55.20;;;37.30;;
37303;SDS011;23188;51.188;16.374;2023-04-06T07:53:58;50.70;;;34.90;;
37303;SDS011;23188;51.188;16.374;2023-04-06T07:58:01;52.90;;;37.50;;
37303;SDS011;23188;51.188;16.374;2023-04-06T08:02:06;64.00;;;40.50;;
37303;SDS011;23188;51.188;16.374;2023-04-06T08:06:09;57.00;;;35.40;;
37303;SDS011;23188;51.188;16.374;2023-04-06T08:10:13;52.50;;;36.20;;
37303;SDS011;23188;51.188;16.374;2023-04-06T08:14:16;62.10;;;39.60;;
37303;SDS011;23188;51.188;16.374;2023-04-06T08:18:20;47.90;;;36.10;;
37303;SDS011;23188;51.188;16.374;2023-04-06T08:22:23;55.20;;;39.30;;
37303;SDS011;23188;51.188;16.374;2023-04-06T08:26:26;59.00;;;39.30;;
37303;SDS011;23188;51.188;16.374;2023-04-06T08:30:29;50.80;;;37.20;;
37303;SDS011;23188;51.188;16.374;2023-04-06T08:34:33;53.40;;;37.30;;
37303;SDS011;23188;51.188;16.374;2023-04-06T08:38:36;59.40;;;38.90;;
37303;SDS011;23188;51.188;16.374;2023-04-06T08:42:40;47.40;;;37.20;;
37303;SDS011;23188;51.188;16.374;2023-04-06T08:46:52;50.00;;;38.90;;
37303;SDS011;23188;51.188;16.374;2023-04-06T08:50:55;54.00;;;39.20;;
37303;SDS011;23188;51.188;16.374;2023-04-06T08:54:58;48.30;;;35.00;;
37303;SDS011;23188;51.188;16.374;2023-04-06T08:59:02;50.70;;;37.20;;
37303;SDS011;23188;51.188;16.374;2023-04-06T09:03:06;51.20;;;36.10;;
37303;SDS011;23188;51.188;16.374;2023-04-06T09:07:10;46.60;;;31.90;;
37303;SDS011;23188;51.188;16.374;2023-04-06T09:11:16;44.80;;;33.90;;
37303;SDS011;23188;51.188;16.374;2023-04-06T09:15:20;42.20;;;32.10;;
37303;SDS011;23188;51.188;16.374;2023-04-06T09:19:26;35.00;;;25.70;;
37303;SDS011;23188;51.188;16.374;2023-04-06T09:23:30;23.00;;;18.10;;
37303;SDS011;23188;51.188;16.374;2023-04-06T09:27:35;31.90;;;23.70;;
37303;SDS011;23188;51.188;16.374;2023-04-06T09:31:40;16.60;;;14.30;;
37303;SDS011;23188;51.188;16.374;2023-04-06T09:35:49;20.40;;;16.10;;
37303;SDS011;23188;51.188;16.374;2023-04-06T09:40:01;23.30;;;18.60;;
37303;SDS011;23188;51.188;16.374;2023-04-06T09:44:11;24.50;;;18.30;;
37303;SDS011;23188;51.188;16.374;2023-04-06T09:48:16;25.10;;;18.90;;
37303;SDS011;23188;51.188;16.374;2023-04-06T09:52:21;21.70;;;17.70;;
37303;SDS011;23188;51.188;16.374;2023-04-06T09:56:28;23.20;;;16.40;;
37303;SDS011;23188;51.188;16.374;2023-04-06T10:00:48;21.60;;;16.90;;
37303;SDS011;23188;51.188;16.374;2023-04-06T10:05:08;19.60;;;16.20;;
37303;SDS011;23188;51.188;16.374;2023-04-06T10:09:15;16.00;;;13.50;;
37303;SDS011;23188;51.188;16.374;2023-04-06T10:13:19;17.80;;;13.80;;
37303;SDS011;23188;51.188;16.374;2023-04-06T10:17:22;16.40;;;12.50;;
37303;SDS011;23188;51.188;16.374;2023-04-06T10:21:29;13.70;;;11.70;;
37303;SDS011;23188;51.188;16.374;2023-04-06T10:25:35;21.80;;;16.80;;
37303;SDS011;23188;51.188;16.374;2023-04-06T10:29:43;23.60;;;18.30;;
37303;SDS011;23188;51.188;16.374;2023-04-06T10:33:57;23.00;;;16.90;;
37303;SDS011;23188;51.188;16.374;2023-04-06T10:38:02;23.10;;;18.00;;
37303;SDS011;23188;51.188;16.374;2023-04-06T10:42:06;22.40;;;15.90;;
37303;SDS011;23188;51.188;16.374;2023-04-06T10:46:10;23.30;;;16.70;;
37303;SDS011;23188;51.188;16.374;2023-04-06T10:50:14;21.00;;;17.00;;
37303;SDS011;23188;51.188;16.374;2023-04-06T10:54:21;27.40;;;18.40;;
37303;SDS011;23188;51.188;16.374;2023-04-06T10:58:27;20.70;;;16.30;;
37303;SDS011;23188;51.188;16.374;2023-04-06T11:02:30;25.00;;;18.00;;
37303;SDS011;23188;51.188;16.374;2023-04-06T11:06:34;19.70;;;16.00;;
37303;SDS011;23188;51.188;16.374;2023-04-06T11:10:37;17.80;;;14.70;;
37303;SDS011;23188;51.188;16.374;2023-04-06T11:14:40;18.00;;;12.90;;
37303;SDS011;23188;51.188;16.374;2023-04-06T11:18:51;24.00;;;17.00;;
37303;SDS011;23188;51.188;16.374;2023-04-06T11:22:59;22.30;;;15.10;;
37303;SDS011;23188;51.188;16.374;2023-04-06T11:27:02;19.40;;;15.70;;
37303;SDS011;23188;51.188;16.374;2023-04-06T11:31:07;18.00;;;15.10;;
37303;SDS011;23188;51.188;16.374;2023-04-06T11:35:19;17.60;;;14.80;;
37303;SDS011;23188;51.188;16.374;2023-04-06T11:39:26;24.00;;;14.20;;
37303;SDS011;23188;51.188;16.374;2023-04-06T11:43:31;21.60;;;15.00;;
37303;SDS011;23188;51.188;16.374;2023-04-06T11:47:35;18.70;;;14.90;;
37303;SDS011;23188;51.188;16.374;2023-04-06T11:51:40;14.40;;;11.40;;
37303;SDS011;23188;51.188;16.374;2023-04-06T11:55:43;25.90;;;10.90;;
37303;SDS011;23188;51.188;16.374;2023-04-06T11:59:49;11.40;;;9.50;;
37303;SDS011;23188;51.188;16.374;2023-04-06T12:03:52;13.20;;;10.60;;
37303;SDS011;23188;51.188;16.374;2023-04-06T12:07:56;13.20;;;10.10;;
37303;SDS011;23188;51.188;16.374;2023-04-06T12:12:04;11.80;;;8.60;;
37303;SDS011;23188;51.188;16.374;2023-04-06T12:16:07;12.70;;;9.80;;
37303;SDS011;23188;51.188;16.374;2023-04-06T12:20:11;14.40;;;10.40;;
37303;SDS011;23188;51.188;16.374;2023-04-06T12:28:31;17.40;;;10.80;;
37303;SDS011;23188;51.188;16.374;2023-04-06T12:32:34;16.00;;;12.00;;
37303;SDS011;23188;51.188;16.374;2023-04-06T12:36:37;17.50;;;11.10;;
37303;SDS011;23188;51.188;16.374;2023-04-06T12:40:41;15.60;;;11.40;;
37303;SDS011;23188;51.188;16.374;2023-04-06T12:44:44;13.90;;;11.40;;
37303;SDS011;23188;51.188;16.374;2023-04-06T12:48:47;11.90;;;8.50;;
37303;SDS011;23188;51.188;16.374;2023-04-06T12:52:50;13.70;;;8.50;;
37303;SDS011;23188;51.188;16.374;2023-04-06T12:56:54;14.50;;;10.20;;
37303;SDS011;23188;51.188;16.374;2023-04-06T13:00:59;12.60;;;10.00;;
37303;SDS011;23188;51.188;16.374;2023-04-06T13:09:08;15.50;;;10.60;;
37303;SDS011;23188;51.188;16.374;2023-04-06T13:13:11;12.00;;;9.20;;
37303;SDS011;23188;51.188;16.374;2023-04-06T13:17:14;14.00;;;9.00;;
37303;SDS011;23188;51.188;16.374;2023-04-06T13:21:19;10.30;;;8.10;;
37303;SDS011;23188;51.188;16.374;2023-04-06T13:25:23;10.10;;;8.00;;
37303;SDS011;23188;51.188;16.374;2023-04-06T13:29:26;12.00;;;8.50;;
37303;SDS011;23188;51.188;16.374;2023-04-06T13:33:29;10.80;;;8.80;;
37303;SDS011;23188;51.188;16.374;2023-04-06T13:37:33;12.80;;;9.00;;
37303;SDS011;23188;51.188;16.374;2023-04-06T13:41:37;11.00;;;7.70;;
37303;SDS011;23188;51.188;16.374;2023-04-06T13:45:40;11.40;;;7.90;;
37303;SDS011;23188;51.188;16.374;2023-04-06T13:49:43;13.30;;;10.00;;
37303;SDS011;23188;51.188;16.374;2023-04-06T13:53:46;9.60;;;8.50;;
37303;SDS011;23188;51.188;16.374;2023-04-06T13:57:48;11.30;;;9.60;;
37303;SDS011;23188;51.188;16.374;2023-04-06T14:01:52;12.70;;;8.90;;
37303;SDS011;23188;51.188;16.374;2023-04-06T14:05:55;10.50;;;9.40;;
37303;SDS011;23188;51.188;16.374;2023-04-06T14:10:06;13.00;;;9.70;;
37303;SDS011;23188;51.188;16.374;2023-04-06T14:14:16;15.70;;;11.00;;
37303;SDS011;23188;51.188;16.374;2023-04-06T14:18:19;9.40;;;8.60;;
37303;SDS011;23188;51.188;16.374;2023-04-06T14:22:23;13.10;;;9.30;;
37303;SDS011;23188;51.188;16.374;2023-04-06T14:26:26;13.90;;;10.40;;
37303;SDS011;23188;51.188;16.374;2023-04-06T14:30:30;16.10;;;11.10;;
37303;SDS011;23188;51.188;16.374;2023-04-06T14:34:33;11.40;;;9.20;;
37303;SDS011;23188;51.188;16.374;2023-04-06T14:42:42;13.00;;;9.60;;
37303;SDS011;23188;51.188;16.374;2023-04-06T14:46:45;10.50;;;9.40;;
37303;SDS011;23188;51.188;16.374;2023-04-06T14:50:52;15.30;;;11.40;;
37303;SDS011;23188;51.188;16.374;2023-04-06T14:54:55;13.80;;;10.10;;
37303;SDS011;23188;51.188;16.374;2023-04-06T14:58:58;14.20;;;10.60;;
37303;SDS011;23188;51.188;16.374;2023-04-06T15:03:04;13.10;;;10.20;;
37303;SDS011;23188;51.188;16.374;2023-04-06T15:07:07;13.00;;;10.60;;
37303;SDS011;23188;51.188;16.374;2023-04-06T15:11:10;14.00;;;10.90;;
37303;SDS011;23188;51.188;16.374;2023-04-06T15:15:14;12.60;;;9.60;;
37303;SDS011;23188;51.188;16.374;2023-04-06T15:19:17;14.40;;;9.40;;
37303;SDS011;23188;51.188;16.374;2023-04-06T15:23:20;10.30;;;9.30;;
37303;SDS011;23188;51.188;16.374;2023-04-06T15:27:23;12.00;;;9.40;;
37303;SDS011;23188;51.188;16.374;2023-04-06T15:31:26;11.40;;;9.20;;
37303;SDS011;23188;51.188;16.374;2023-04-06T15:35:40;15.60;;;10.20;;
37303;SDS011;23188;51.188;16.374;2023-04-06T15:39:45;12.00;;;10.80;;
37303;SDS011;23188;51.188;16.374;2023-04-06T15:43:48;9.40;;;8.00;;
37303;SDS011;23188;51.188;16.374;2023-04-06T15:47:53;14.40;;;9.20;;
37303;SDS011;23188;51.188;16.374;2023-04-06T15:51:56;11.70;;;9.20;;
37303;SDS011;23188;51.188;16.374;2023-04-06T15:56:00;13.00;;;9.40;;
37303;SDS011;23188;51.188;16.374;2023-04-06T16:00:03;15.00;;;10.30;;
37303;SDS011;23188;51.188;16.374;2023-04-06T16:04:07;10.30;;;8.50;;
37303;SDS011;23188;51.188;16.374;2023-04-06T16:08:14;13.50;;;10.50;;
37303;SDS011;23188;51.188;16.374;2023-04-06T16:12:19;10.90;;;8.40;;
37303;SDS011;23188;51.188;16.374;2023-04-06T16:16:22;9.90;;;9.00;;
37303;SDS011;23188;51.188;16.374;2023-04-06T16:20:26;12.20;;;9.50;;
37303;SDS011;23188;51.188;16.374;2023-04-06T16:24:29;9.80;;;8.80;;
37303;SDS011;23188;51.188;16.374;2023-04-06T16:28:32;14.60;;;11.30;;
37303;SDS011;23188;51.188;16.374;2023-04-06T16:32:35;15.20;;;10.90;;
37303;SDS011;23188;51.188;16.374;2023-04-06T16:36:41;14.50;;;9.40;;
37303;SDS011;23188;51.188;16.374;2023-04-06T16:40:59;13.30;;;9.30;;
37303;SDS011;23188;51.188;16.374;2023-04-06T16:45:07;12.60;;;10.80;;
37303;SDS011;23188;51.188;16.374;2023-04-06T16:49:31;16.30;;;11.50;;
37303;SDS011;23188;51.188;16.374;2023-04-06T16:53:49;17.10;;;11.90;;
37303;SDS011;23188;51.188;16.374;2023-04-06T16:57:54;13.50;;;12.10;;
37303;SDS011;23188;51.188;16.374;2023-04-06T17:02:09;14.30;;;9.60;;
37303;SDS011;23188;51.188;16.374;2023-04-06T17:06:13;13.40;;;10.20;;
37303;SDS011;23188;51.188;16.374;2023-04-06T17:10:18;18.10;;;12.40;;
37303;SDS011;23188;51.188;16.374;2023-04-06T17:14:37;16.60;;;10.60;;
37303;SDS011;23188;51.188;16.374;2023-04-06T17:18:48;18.80;;;14.10;;
37303;SDS011;23188;51.188;16.374;2023-04-06T17:23:02;18.00;;;13.30;;
37303;SDS011;23188;51.188;16.374;2023-04-06T17:27:08;20.90;;;15.30;;
37303;SDS011;23188;51.188;16.374;2023-04-06T17:31:21;17.20;;;13.70;;
37303;SDS011;23188;51.188;16.374;2023-04-06T17:35:28;20.20;;;16.00;;
37303;SDS011;23188;51.188;16.374;2023-04-06T17:39:53;23.60;;;18.20;;
37303;SDS011;23188;51.188;16.374;2023-04-06T17:44:13;24.20;;;16.80;;
37303;SDS011;23188;51.188;16.374;2023-04-06T17:48:22;21.80;;;15.30;;
37303;SDS011;23188;51.188;16.374;2023-04-06T17:53:02;21.70;;;15.40;;
37303;SDS011;23188;51.188;16.374;2023-04-06T17:57:13;21.50;;;15.50;;
37303;SDS011;23188;51.188;16.374;2023-04-06T18:01:20;23.20;;;18.10;;
37303;SDS011;23188;51.188;16.374;2023-04-06T18:05:32;19.60;;;15.00;;
37303;SDS011;23188;51.188;16.374;2023-04-06T18:09:41;20.40;;;16.10;;
37303;SDS011;23188;51.188;16.374;2023-04-06T18:13:48;20.80;;;16.00;;
37303;SDS011;23188;51.188;16.374;2023-04-06T18:18:05;31.50;;;20.10;;
37303;SDS011;23188;51.188;16.374;2023-04-06T18:22:13;30.00;;;19.30;;
37303;SDS011;23188;51.188;16.374;2023-04-06T18:26:22;21.00;;;16.40;;
37303;SDS011;23188;51.188;16.374;2023-04-06T18:30:27;22.00;;;15.70;;
37303;SDS011;23188;51.188;16.374;2023-04-06T18:34:31;21.40;;;14.00;;
37303;SDS011;23188;51.188;16.374;2023-04-06T18:38:35;22.40;;;15.50;;
37303;SDS011;23188;51.188;16.374;2023-04-06T18:42:40;23.70;;;16.60;;
37303;SDS011;23188;51.188;16.374;2023-04-06T18:46:43;18.90;;;14.20;;
37303;SDS011;23188;51.188;16.374;2023-04-06T18:50:53;23.00;;;17.40;;
37303;SDS011;23188;51.188;16.374;2023-04-06T18:55:02;23.00;;;15.50;;
37303;SDS011;23188;51.188;16.374;2023-04-06T18:59:31;27.20;;;16.70;;
37303;SDS011;23188;51.188;16.374;2023-04-06T19:03:50;29.70;;;22.20;;
37303;SDS011;23188;51.188;16.374;2023-04-06T19:07:55;40.10;;;23.20;;
37303;SDS011;23188;51.188;16.374;2023-04-06T19:11:58;29.00;;;17.30;;
37303;SDS011;23188;51.188;16.374;2023-04-06T19:16:12;36.10;;;21.50;;
37303;SDS011;23188;51.188;16.374;2023-04-06T19:20:32;31.10;;;20.20;;
37303;SDS011;23188;51.188;16.374;2023-04-06T19:24:41;27.40;;;16.30;;
37303;SDS011;23188;51.188;16.374;2023-04-06T19:28:47;20.50;;;16.50;;
37303;SDS011;23188;51.188;16.374;2023-04-06T19:32:55;24.20;;;17.00;;
37303;SDS011;23188;51.188;16.374;2023-04-06T19:36:59;24.30;;;17.10;;
37303;SDS011;23188;51.188;16.374;2023-04-06T19:41:07;23.90;;;17.20;;
37303;SDS011;23188;51.188;16.374;2023-04-06T19:45:20;29.00;;;18.80;;
37303;SDS011;23188;51.188;16.374;2023-04-06T19:49:28;28.50;;;20.10;;
37303;SDS011;23188;51.188;16.374;2023-04-06T19:53:32;40.90;;;24.60;;
37303;SDS011;23188;51.188;16.374;2023-04-06T19:57:39;41.30;;;24.60;;
37303;SDS011;23188;51.188;16.374;2023-04-06T20:01:44;43.50;;;24.10;;
37303;SDS011;23188;51.188;16.374;2023-04-06T20:05:55;34.80;;;22.30;;
37303;SDS011;23188;51.188;16.374;2023-04-06T20:09:58;30.60;;;19.60;;
37303;SDS011;23188;51.188;16.374;2023-04-06T20:14:13;27.40;;;20.60;;
37303;SDS011;23188;51.188;16.374;2023-04-06T20:18:22;36.30;;;24.80;;
37303;SDS011;23188;51.188;16.374;2023-04-06T20:22:36;38.90;;;22.00;;
37303;SDS011;23188;51.188;16.374;2023-04-06T20:26:39;30.30;;;23.20;;
37303;SDS011;23188;51.188;16.374;2023-04-06T20:30:42;35.10;;;23.40;;
37303;SDS011;23188;51.188;16.374;2023-04-06T20:34:45;35.60;;;25.20;;
37303;SDS011;23188;51.188;16.374;2023-04-06T20:38:49;36.70;;;21.40;;
37303;SDS011;23188;51.188;16.374;2023-04-06T20:42:55;34.80;;;23.90;;
37303;SDS011;23188;51.188;16.374;2023-04-06T20:46:59;25.80;;;19.10;;
37303;SDS011;23188;51.188;16.374;2023-04-06T20:51:03;28.90;;;21.20;;
37303;SDS011;23188;51.188;16.374;2023-04-06T20:55:07;32.30;;;21.00;;
37303;SDS011;23188;51.188;16.374;2023-04-06T20:59:10;32.70;;;20.40;;
37303;SDS011;23188;51.188;16.374;2023-04-06T21:03:14;32.40;;;22.90;;
37303;SDS011;23188;51.188;16.374;2023-04-06T21:07:19;33.00;;;22.80;;
37303;SDS011;23188;51.188;16.374;2023-04-06T21:11:22;31.00;;;23.00;;
37303;SDS011;23188;51.188;16.374;2023-04-06T21:15:25;27.90;;;21.30;;
37303;SDS011;23188;51.188;16.374;2023-04-06T21:19:28;36.10;;;23.20;;
37303;SDS011;23188;51.188;16.374;2023-04-06T21:23:31;34.20;;;21.30;;
37303;SDS011;23188;51.188;16.374;2023-04-06T21:27:34;33.10;;;19.80;;
37303;SDS011;23188;51.188;16.374;2023-04-06T21:31:38;30.90;;;22.70;;
37303;SDS011;23188;51.188;16.374;2023-04-06T21:35:43;29.90;;;21.80;;
37303;SDS011;23188;51.188;16.374;2023-04-06T21:39:46;32.30;;;23.60;;
37303;SDS011;23188;51.188;16.374;2023-04-06T21:43:49;31.20;;;21.20;;
37303;SDS011;23188;51.188;16.374;2023-04-06T21:47:52;28.60;;;20.60;;
37303;SDS011;23188;51.188;16.374;2023-04-06T21:51:56;48.60;;;33.60;;
37303;SDS011;23188;51.188;16.374;2023-04-06T21:55:59;42.60;;;28.40;;
37303;SDS011;23188;51.188;16.374;2023-04-06T22:00:03;41.50;;;27.10;;
37303;SDS011;23188;51.188;16.374;2023-04-06T22:04:11;53.50;;;35.30;;
37303;SDS011;23188;51.188;16.374;2023-04-06T22:08:15;40.30;;;29.30;;
37303;SDS011;23188;51.188;16.374;2023-04-06T22:12:31;33.00;;;22.80;;
37303;SDS011;23188;51.188;16.374;2023-04-06T22:16:34;29.00;;;23.70;;
37303;SDS011;23188;51.188;16.374;2023-04-06T22:20:37;40.00;;;26.00;;
37303;SDS011;23188;51.188;16.374;2023-04-06T22:24:40;32.20;;;22.40;;
37303;SDS011;23188;51.188;16.374;2023-04-06T22:28:43;37.30;;;23.70;;
37303;SDS011;23188;51.188;16.374;2023-04-06T22:32:46;39.70;;;26.50;;
37303;SDS011;23188;51.188;16.374;2023-04-06T22:36:49;35.00;;;23.50;;
37303;SDS011;23188;51.188;16.374;2023-04-06T22:40:52;32.30;;;23.20;;
37303;SDS011;23188;51.188;16.374;2023-04-06T22:44:55;42.60;;;24.00;;
37303;SDS011;23188;51.188;16.374;2023-04-06T22:48:58;41.60;;;27.50;;
37303;SDS011;23188;51.188;16.374;2023-04-06T22:53:01;49.20;;;30.20;;
37303;SDS011;23188;51.188;16.374;2023-04-06T22:57:04;41.10;;;27.20;;
37303;SDS011;23188;51.188;16.374;2023-04-06T23:01:07;32.00;;;23.70;;
37303;SDS011;23188;51.188;16.374;2023-04-06T23:05:10;39.20;;;25.70;;
37303;SDS011;23188;51.188;16.374;2023-04-06T23:09:13;48.00;;;27.90;;
37303;SDS011;23188;51.188;16.374;2023-04-06T23:13:16;48.20;;;31.40;;
37303;SDS011;23188;51.188;16.374;2023-04-06T23:17:19;43.40;;;30.50;;
37303;SDS011;23188;51.188;16.374;2023-04-06T23:21:22;41.90;;;31.60;;
37303;SDS011;23188;51.188;16.374;2023-04-06T23:25:25;53.10;;;34.70;;
37303;SDS011;23188;51.188;16.374;2023-04-06T23:29:28;55.20;;;35.20;;
37303;SDS011;23188;51.188;16.374;2023-04-06T23:33:31;48.70;;;32.40;;
37303;SDS011;23188;51.188;16.374;2023-04-06T23:37:34;45.80;;;31.50;;
37303;SDS011;23188;51.188;16.374;2023-04-06T23:41:37;64.70;;;33.90;;
37303;SDS011;23188;51.188;16.374;2023-04-06T23:45:40;58.80;;;35.60;;
37303;SDS011;23188;51.188;16.374;2023-04-06T23:49:44;51.90;;;34.50;;